sensor_id;sensor_type;location;lat;lon;timestamp;temperature;humidity
9977;DHT22;5029;47.378;11.776;2022-09-27T00:00:08;8.00;99.90
9977;DHT22;5029;47.378;11.776;2022-09-27T00:05:14;7.90;99.90
9977;DHT22;5029;47.378;11.776;2022-09-27T00:10:18;8.00;99.90
9977;DHT22;5029;47.378;11.776;2022-09-27T00:15:23;8.00;99.90
9977;DHT22;5029;47.378;11.776;2022-09-27T00:20:27;8.10;99.90
9977;DHT22;5029;47.378;11.776;2022-09-27T00:25:30;8.00;99.90
9977;DHT22;5029;47.378;11.776;2022-09-27T00:30:40;7.80;99.90
9977;DHT22;5029;47.378;11.776;2022-09-27T00:35:44;7.80;99.90
9977;DHT22;5029;47.378;11.776;2022-09-27T00:40:48;7.70;99.90
9977;DHT22;5029;47.378;11.776;2022-09-27T00:45:56;7.80;99.90
9977;DHT22;5029;47.378;11.776;2022-09-27T00:51:03;8.10;99.90
9977;DHT22;5029;47.378;11.776;2022-09-27T00:56:10;8.00;99.90
9977;DHT22;5029;47.378;11.776;2022-09-27T01:01:16;8.20;99.90
9977;DHT22;5029;47.378;11.776;2022-09-27T01:06:21;7.90;99.90
9977;DHT22;5029;47.378;11.776;2022-09-27T01:11:36;7.90;99.90
9977;DHT22;5029;47.378;11.776;2022-09-27T01:16:47;7.70;99.90
9977;DHT22;5029;47.378;11.776;2022-09-27T01:21:57;7.90;99.90
9977;DHT22;5029;47.378;11.776;2022-09-27T01:27:27;7.70;99.90
9977;DHT22;5029;47.378;11.776;2022-09-27T01:32:39;7.80;99.90
9977;DHT22;5029;47.378;11.776;2022-09-27T01:37:53;7.80;99.90
9977;DHT22;5029;47.378;11.776;2022-09-27T01:43:05;7.80;99.90
9977;DHT22;5029;47.378;11.776;2022-09-27T01:48:17;7.80;99.90
9977;DHT22;5029;47.378;11.776;2022-09-27T01:53:24;7.90;99.90
9977;DHT22;5029;47.378;11.776;2022-09-27T01:58:32;8.10;99.90
9977;DHT22;5029;47.378;11.776;2022-09-27T02:03:41;7.70;99.90
9977;DHT22;5029;47.378;11.776;2022-09-27T02:08:51;7.50;99.90
9977;DHT22;5029;47.378;11.776;2022-09-27T02:13:58;7.80;99.90
9977;DHT22;5029;47.378;11.776;2022-09-27T02:19:08;7.90;99.90
9977;DHT22;5029;47.378;11.776;2022-09-27T02:24:21;7.60;99.90
9977;DHT22;5029;47.378;11.776;2022-09-27T02:29:31;7.50;99.90
9977;DHT22;5029;47.378;11.776;2022-09-27T02:34:39;7.50;99.90
9977;DHT22;5029;47.378;11.776;2022-09-27T02:39:43;7.60;99.90
9977;DHT22;5029;47.378;11.776;2022-09-27T02:44:47;7.60;99.90
9977;DHT22;5029;47.378;11.776;2022-09-27T02:50:02;7.50;99.90
9977;DHT22;5029;47.378;11.776;2022-09-27T02:55:18;7.40;99.90
9977;DHT22;5029;47.378;11.776;2022-09-27T03:00:27;7.60;99.90
9977;DHT22;5029;47.378;11.776;2022-09-27T03:05:38;7.30;99.90
9977;DHT22;5029;47.378;11.776;2022-09-27T03:10:46;7.60;99.90
9977;DHT22;5029;47.378;11.776;2022-09-27T03:15:50;7.50;99.90
9977;DHT22;5029;47.378;11.776;2022-09-27T03:20:55;7.50;99.90
9977;DHT22;5029;47.378;11.776;2022-09-27T03:25:58;7.70;99.90
9977;DHT22;5029;47.378;11.776;2022-09-27T03:31:02;7.50;99.90
9977;DHT22;5029;47.378;11.776;2022-09-27T03:36:07;7.70;99.90
9977;DHT22;5029;47.378;11.776;2022-09-27T03:41:11;7.50;99.90
9977;DHT22;5029;47.378;11.776;2022-09-27T03:46:14;7.70;99.90
9977;DHT22;5029;47.378;11.776;2022-09-27T03:51:19;7.60;99.90
9977;DHT22;5029;47.378;11.776;2022-09-27T03:56:23;7.60;99.90
9977;DHT22;5029;47.378;11.776;2022-09-27T04:01:26;7.60;99.90
9977;DHT22;5029;47.378;11.776;2022-09-27T04:06:32;7.60;99.90
9977;DHT22;5029;47.378;11.776;2022-09-27T04:11:35;7.60;99.90
9977;DHT22;5029;47.378;11.776;2022-09-27T04:16:39;7.40;99.90
9977;DHT22;5029;47.378;11.776;2022-09-27T04:21:44;7.70;99.90
9977;DHT22;5029;47.378;11.776;2022-09-27T04:26:47;7.30;99.90
9977;DHT22;5029;47.378;11.776;2022-09-27T04:31:51;7.30;99.90
9977;DHT22;5029;47.378;11.776;2022-09-27T04:36:56;7.10;99.90
9977;DHT22;5029;47.378;11.776;2022-09-27T04:41:59;7.30;99.90
9977;DHT22;5029;47.378;11.776;2022-09-27T04:47:02;7.40;99.90
9977;DHT22;5029;47.378;11.776;2022-09-27T04:52:07;7.70;99.90
9977;DHT22;5029;47.378;11.776;2022-09-27T04:57:10;7.30;99.90
9977;DHT22;5029;47.378;11.776;2022-09-27T05:02:15;7.10;99.90
9977;DHT22;5029;47.378;11.776;2022-09-27T05:07:20;7.00;99.90
9977;DHT22;5029;47.378;11.776;2022-09-27T05:12:23;6.90;99.90
9977;DHT22;5029;47.378;11.776;2022-09-27T05:17:27;7.10;99.90
9977;DHT22;5029;47.378;11.776;2022-09-27T05:22:32;7.30;99.90
9977;DHT22;5029;47.378;11.776;2022-09-27T05:27:36;6.90;99.90
9977;DHT22;5029;47.378;11.776;2022-09-27T05:32:41;7.00;99.90
9977;DHT22;5029;47.378;11.776;2022-09-27T05:37:52;6.90;99.90
9977;DHT22;5029;47.378;11.776;2022-09-27T05:42:56;7.00;99.90
9977;DHT22;5029;47.378;11.776;2022-09-27T05:48:00;6.90;99.90
9977;DHT22;5029;47.378;11.776;2022-09-27T05:53:06;7.10;99.90
9977;DHT22;5029;47.378;11.776;2022-09-27T05:58:10;7.00;99.90
9977;DHT22;5029;47.378;11.776;2022-09-27T06:03:18;6.90;99.90
9977;DHT22;5029;47.378;11.776;2022-09-27T06:08:23;7.00;99.90
9977;DHT22;5029;47.378;11.776;2022-09-27T06:13:27;7.40;99.90
9977;DHT22;5029;47.378;11.776;2022-09-27T06:18:31;7.10;99.90
9977;DHT22;5029;47.378;11.776;2022-09-27T06:23:36;7.00;99.90
9977;DHT22;5029;47.378;11.776;2022-09-27T06:28:39;7.10;99.90
9977;DHT22;5029;47.378;11.776;2022-09-27T06:33:43;7.20;99.90
9977;DHT22;5029;47.378;11.776;2022-09-27T06:38:48;7.20;99.90
9977;DHT22;5029;47.378;11.776;2022-09-27T06:43:52;7.20;99.90
9977;DHT22;5029;47.378;11.776;2022-09-27T06:48:59;7.20;99.90
9977;DHT22;5029;47.378;11.776;2022-09-27T06:54:07;7.20;99.90
9977;DHT22;5029;47.378;11.776;2022-09-27T06:59:11;7.00;99.90
9977;DHT22;5029;47.378;11.776;2022-09-27T07:04:32;7.20;99.90
9977;DHT22;5029;47.378;11.776;2022-09-27T07:09:38;7.30;99.90
9977;DHT22;5029;47.378;11.776;2022-09-27T07:14:44;7.40;99.90
9977;DHT22;5029;47.378;11.776;2022-09-27T07:19:47;7.50;99.90
9977;DHT22;5029;47.378;11.776;2022-09-27T07:24:53;7.40;99.90
9977;DHT22;5029;47.378;11.776;2022-09-27T07:29:59;7.20;99.90
9977;DHT22;5029;47.378;11.776;2022-09-27T07:35:08;7.50;99.90
9977;DHT22;5029;47.378;11.776;2022-09-27T07:40:13;7.60;99.90
9977;DHT22;5029;47.378;11.776;2022-09-27T07:45:19;7.60;99.90
9977;DHT22;5029;47.378;11.776;2022-09-27T07:50:27;7.70;99.90
9977;DHT22;5029;47.378;11.776;2022-09-27T07:55:32;7.80;99.90
9977;DHT22;5029;47.378;11.776;2022-09-27T08:00:37;7.70;99.90
9977;DHT22;5029;47.378;11.776;2022-09-27T08:05:42;7.90;99.90
9977;DHT22;5029;47.378;11.776;2022-09-27T08:10:47;8.00;99.90
9977;DHT22;5029;47.378;11.776;2022-09-27T08:15:51;8.10;99.90
9977;DHT22;5029;47.378;11.776;2022-09-27T08:20:56;8.00;99.90
9977;DHT22;5029;47.378;11.776;2022-09-27T08:26:01;7.90;99.90
9977;DHT22;5029;47.378;11.776;2022-09-27T08:31:05;8.00;99.90
9977;DHT22;5029;47.378;11.776;2022-09-27T08:36:12;7.90;99.90
9977;DHT22;5029;47.378;11.776;2022-09-27T08:41:24;8.00;99.90
9977;DHT22;5029;47.378;11.776;2022-09-27T08:46:36;8.00;99.90
9977;DHT22;5029;47.378;11.776;2022-09-27T08:51:44;7.90;99.90
9977;DHT22;5029;47.378;11.776;2022-09-27T08:56:54;7.90;99.90
9977;DHT22;5029;47.378;11.776;2022-09-27T09:02:05;7.70;99.90
9977;DHT22;5029;47.378;11.776;2022-09-27T09:07:26;7.70;99.90
9977;DHT22;5029;47.378;11.776;2022-09-27T09:12:40;8.00;99.90
9977;DHT22;5029;47.378;11.776;2022-09-27T09:18:13;8.00;99.90
9977;DHT22;5029;47.378;11.776;2022-09-27T09:23:37;7.80;99.90
9977;DHT22;5029;47.378;11.776;2022-09-27T09:28:59;7.90;99.90
9977;DHT22;5029;47.378;11.776;2022-09-27T09:34:12;8.10;99.90
9977;DHT22;5029;47.378;11.776;2022-09-27T09:39:22;7.90;99.90
9977;DHT22;5029;47.378;11.776;2022-09-27T09:44:32;8.30;99.90
9977;DHT22;5029;47.378;11.776;2022-09-27T09:49:43;8.10;99.90
9977;DHT22;5029;47.378;11.776;2022-09-27T09:54:50;8.00;99.90
9977;DHT22;5029;47.378;11.776;2022-09-27T10:00:00;8.00;99.90
9977;DHT22;5029;47.378;11.776;2022-09-27T10:05:06;8.40;99.90
9977;DHT22;5029;47.378;11.776;2022-09-27T10:10:13;8.90;99.90
9977;DHT22;5029;47.378;11.776;2022-09-27T10:15:20;9.30;99.90
9977;DHT22;5029;47.378;11.776;2022-09-27T10:20:30;9.40;99.90
9977;DHT22;5029;47.378;11.776;2022-09-27T10:25:56;9.50;99.90
9977;DHT22;5029;47.378;11.776;2022-09-27T10:31:04;9.60;99.90
9977;DHT22;5029;47.378;11.776;2022-09-27T10:36:23;9.40;99.90
9977;DHT22;5029;47.378;11.776;2022-09-27T10:41:35;9.40;99.90
9977;DHT22;5029;47.378;11.776;2022-09-27T10:46:46;9.40;99.90
9977;DHT22;5029;47.378;11.776;2022-09-27T10:51:52;9.40;99.90
9977;DHT22;5029;47.378;11.776;2022-09-27T10:57:03;9.60;99.90
9977;DHT22;5029;47.378;11.776;2022-09-27T11:02:20;9.60;99.90
9977;DHT22;5029;47.378;11.776;2022-09-27T11:07:24;9.90;99.90
9977;DHT22;5029;47.378;11.776;2022-09-27T11:12:30;9.30;99.90
9977;DHT22;5029;47.378;11.776;2022-09-27T11:17:42;9.00;99.90
9977;DHT22;5029;47.378;11.776;2022-09-27T11:23:19;8.80;99.90
9977;DHT22;5029;47.378;11.776;2022-09-27T11:28:36;8.80;99.90
9977;DHT22;5029;47.378;11.776;2022-09-27T11:34:06;8.90;99.90
9977;DHT22;5029;47.378;11.776;2022-09-27T11:39:21;8.80;99.90
9977;DHT22;5029;47.378;11.776;2022-09-27T11:44:59;8.90;99.90
9977;DHT22;5029;47.378;11.776;2022-09-27T11:50:47;8.90;99.90
9977;DHT22;5029;47.378;11.776;2022-09-27T11:56:04;8.50;99.90
9977;DHT22;5029;47.378;11.776;2022-09-27T12:01:20;8.20;99.90
9977;DHT22;5029;47.378;11.776;2022-09-27T12:06:35;8.30;99.90
9977;DHT22;5029;47.378;11.776;2022-09-27T12:11:43;8.40;99.90
9977;DHT22;5029;47.378;11.776;2022-09-27T12:16:51;8.30;99.90
9977;DHT22;5029;47.378;11.776;2022-09-27T12:22:10;8.60;99.90
9977;DHT22;5029;47.378;11.776;2022-09-27T12:27:20;9.10;99.90
9977;DHT22;5029;47.378;11.776;2022-09-27T12:32:30;8.90;99.90
9977;DHT22;5029;47.378;11.776;2022-09-27T12:37:41;8.90;99.90
9977;DHT22;5029;47.378;11.776;2022-09-27T12:42:49;9.50;99.90
9977;DHT22;5029;47.378;11.776;2022-09-27T12:48:03;10.40;99.90
9977;DHT22;5029;47.378;11.776;2022-09-27T12:53:13;11.10;99.90
9977;DHT22;5029;47.378;11.776;2022-09-27T12:58:37;11.70;99.90
9977;DHT22;5029;47.378;11.776;2022-09-27T13:09:40;11.60;99.90
9977;DHT22;5029;47.378;11.776;2022-09-27T13:14:59;12.20;99.90
9977;DHT22;5029;47.378;11.776;2022-09-27T13:20:35;13.20;99.90
9977;DHT22;5029;47.378;11.776;2022-09-27T13:25:51;13.20;99.90
9977;DHT22;5029;47.378;11.776;2022-09-27T13:30:58;13.80;99.90
9977;DHT22;5029;47.378;11.776;2022-09-27T13:36:29;13.80;99.90
9977;DHT22;5029;47.378;11.776;2022-09-27T13:41:52;13.90;99.90
9977;DHT22;5029;47.378;11.776;2022-09-27T13:47:00;12.50;99.90
9977;DHT22;5029;47.378;11.776;2022-09-27T13:52:16;11.90;99.90
9977;DHT22;5029;47.378;11.776;2022-09-27T13:57:42;11.40;99.90
9977;DHT22;5029;47.378;11.776;2022-09-27T14:02:58;11.40;99.90
9977;DHT22;5029;47.378;11.776;2022-09-27T14:08:02;11.30;99.90
9977;DHT22;5029;47.378;11.776;2022-09-27T14:13:10;11.10;99.90
9977;DHT22;5029;47.378;11.776;2022-09-27T14:18:20;10.60;99.90
9977;DHT22;5029;47.378;11.776;2022-09-27T14:23:25;10.80;99.90
9977;DHT22;5029;47.378;11.776;2022-09-27T14:28:38;10.90;99.90
9977;DHT22;5029;47.378;11.776;2022-09-27T14:33:43;11.00;99.90
9977;DHT22;5029;47.378;11.776;2022-09-27T14:38:47;10.90;99.90
9977;DHT22;5029;47.378;11.776;2022-09-27T14:43:52;10.90;99.90
9977;DHT22;5029;47.378;11.776;2022-09-27T14:48:57;10.40;99.90
9977;DHT22;5029;47.378;11.776;2022-09-27T14:54:01;10.20;99.90
9977;DHT22;5029;47.378;11.776;2022-09-27T14:59:14;10.10;99.90
9977;DHT22;5029;47.378;11.776;2022-09-27T15:04:19;9.80;99.90
9977;DHT22;5029;47.378;11.776;2022-09-27T15:09:24;9.60;99.90
9977;DHT22;5029;47.378;11.776;2022-09-27T15:14:35;9.70;99.90
9977;DHT22;5029;47.378;11.776;2022-09-27T15:19:59;9.50;99.90
9977;DHT22;5029;47.378;11.776;2022-09-27T15:25:05;9.80;99.90
9977;DHT22;5029;47.378;11.776;2022-09-27T15:30:18;9.70;99.90
9977;DHT22;5029;47.378;11.776;2022-09-27T15:35:27;10.30;99.90
9977;DHT22;5029;47.378;11.776;2022-09-27T15:41:06;9.90;99.90
9977;DHT22;5029;47.378;11.776;2022-09-27T15:46:34;9.50;99.90
9977;DHT22;5029;47.378;11.776;2022-09-27T15:51:39;9.50;99.90
9977;DHT22;5029;47.378;11.776;2022-09-27T15:56:43;9.60;99.90
9977;DHT22;5029;47.378;11.776;2022-09-27T16:01:50;9.60;99.90
9977;DHT22;5029;47.378;11.776;2022-09-27T16:06:59;9.30;99.90
9977;DHT22;5029;47.378;11.776;2022-09-27T16:12:03;8.60;99.90
9977;DHT22;5029;47.378;11.776;2022-09-27T16:17:08;8.20;99.90
9977;DHT22;5029;47.378;11.776;2022-09-27T16:22:13;8.10;99.90
9977;DHT22;5029;47.378;11.776;2022-09-27T16:27:22;7.90;99.90
9977;DHT22;5029;47.378;11.776;2022-09-27T16:32:26;8.40;99.90
9977;DHT22;5029;47.378;11.776;2022-09-27T16:37:31;8.20;99.90
9977;DHT22;5029;47.378;11.776;2022-09-27T16:42:36;7.70;99.90
9977;DHT22;5029;47.378;11.776;2022-09-27T16:47:41;7.90;99.90
9977;DHT22;5029;47.378;11.776;2022-09-27T16:52:44;7.80;99.90
9977;DHT22;5029;47.378;11.776;2022-09-27T16:57:50;7.60;99.90
9977;DHT22;5029;47.378;11.776;2022-09-27T17:02:55;7.60;99.90
9977;DHT22;5029;47.378;11.776;2022-09-27T17:07:59;7.40;99.90
9977;DHT22;5029;47.378;11.776;2022-09-27T17:13:02;7.80;99.90
9977;DHT22;5029;47.378;11.776;2022-09-27T17:18:07;7.20;99.90
9977;DHT22;5029;47.378;11.776;2022-09-27T17:23:11;7.20;99.90
9977;DHT22;5029;47.378;11.776;2022-09-27T17:28:14;7.40;99.90
9977;DHT22;5029;47.378;11.776;2022-09-27T17:33:19;7.70;99.90
9977;DHT22;5029;47.378;11.776;2022-09-27T17:38:22;7.50;99.90
9977;DHT22;5029;47.378;11.776;2022-09-27T17:43:26;7.80;99.90
9977;DHT22;5029;47.378;11.776;2022-09-27T17:48:35;7.70;99.90
9977;DHT22;5029;47.378;11.776;2022-09-27T17:53:55;7.40;99.90
9977;DHT22;5029;47.378;11.776;2022-09-27T17:58:59;7.50;99.90
9977;DHT22;5029;47.378;11.776;2022-09-27T18:04:06;7.50;99.90
9977;DHT22;5029;47.378;11.776;2022-09-27T18:09:13;7.60;99.90
9977;DHT22;5029;47.378;11.776;2022-09-27T18:14:17;7.60;99.90
9977;DHT22;5029;47.378;11.776;2022-09-27T18:19:23;8.00;99.90
9977;DHT22;5029;47.378;11.776;2022-09-27T18:24:27;7.70;99.90
9977;DHT22;5029;47.378;11.776;2022-09-27T18:29:30;7.50;99.90
9977;DHT22;5029;47.378;11.776;2022-09-27T18:34:36;7.40;99.90
9977;DHT22;5029;47.378;11.776;2022-09-27T18:39:40;7.50;99.90
9977;DHT22;5029;47.378;11.776;2022-09-27T18:44:44;7.40;99.90
9977;DHT22;5029;47.378;11.776;2022-09-27T18:49:49;6.90;99.90
9977;DHT22;5029;47.378;11.776;2022-09-27T18:54:53;7.10;99.90
9977;DHT22;5029;47.378;11.776;2022-09-27T18:59:57;7.00;99.90
9977;DHT22;5029;47.378;11.776;2022-09-27T19:05:08;7.10;99.90
9977;DHT22;5029;47.378;11.776;2022-09-27T19:10:11;7.30;99.90
9977;DHT22;5029;47.378;11.776;2022-09-27T19:15:16;7.60;99.90
9977;DHT22;5029;47.378;11.776;2022-09-27T19:20:21;7.40;99.90
9977;DHT22;5029;47.378;11.776;2022-09-27T19:25:25;7.10;99.90
9977;DHT22;5029;47.378;11.776;2022-09-27T19:30:29;7.50;99.90
9977;DHT22;5029;47.378;11.776;2022-09-27T19:35:34;7.30;99.90
9977;DHT22;5029;47.378;11.776;2022-09-27T19:40:37;7.10;99.90
9977;DHT22;5029;47.378;11.776;2022-09-27T19:45:41;7.20;99.90
9977;DHT22;5029;47.378;11.776;2022-09-27T19:50:56;7.20;99.90
9977;DHT22;5029;47.378;11.776;2022-09-27T19:56:01;6.80;99.90
9977;DHT22;5029;47.378;11.776;2022-09-27T20:01:06;6.90;99.90
9977;DHT22;5029;47.378;11.776;2022-09-27T20:06:13;7.00;99.90
9977;DHT22;5029;47.378;11.776;2022-09-27T20:11:18;6.90;99.90
9977;DHT22;5029;47.378;11.776;2022-09-27T20:16:23;6.90;99.90
9977;DHT22;5029;47.378;11.776;2022-09-27T20:21:30;6.70;99.90
9977;DHT22;5029;47.378;11.776;2022-09-27T20:26:35;7.00;99.90
9977;DHT22;5029;47.378;11.776;2022-09-27T20:31:39;7.10;99.90
9977;DHT22;5029;47.378;11.776;2022-09-27T20:37:04;7.40;99.90
9977;DHT22;5029;47.378;11.776;2022-09-27T20:42:08;7.00;99.90
9977;DHT22;5029;47.378;11.776;2022-09-27T20:47:11;6.70;99.90
9977;DHT22;5029;47.378;11.776;2022-09-27T20:52:16;6.60;99.90
9977;DHT22;5029;47.378;11.776;2022-09-27T20:57:20;6.80;99.90
9977;DHT22;5029;47.378;11.776;2022-09-27T21:02:46;6.80;99.90
9977;DHT22;5029;47.378;11.776;2022-09-27T21:07:53;7.00;99.90
9977;DHT22;5029;47.378;11.776;2022-09-27T21:12:57;6.80;99.90
9977;DHT22;5029;47.378;11.776;2022-09-27T21:18:02;6.90;99.90
9977;DHT22;5029;47.378;11.776;2022-09-27T21:23:07;6.70;99.90
9977;DHT22;5029;47.378;11.776;2022-09-27T21:28:11;6.80;99.90
9977;DHT22;5029;47.378;11.776;2022-09-27T21:33:14;7.00;99.90
9977;DHT22;5029;47.378;11.776;2022-09-27T21:38:19;7.00;99.90
9977;DHT22;5029;47.378;11.776;2022-09-27T21:43:27;6.70;99.90
9977;DHT22;5029;47.378;11.776;2022-09-27T21:48:31;6.70;99.90
9977;DHT22;5029;47.378;11.776;2022-09-27T21:53:38;6.30;99.90
9977;DHT22;5029;47.378;11.776;2022-09-27T21:58:42;6.60;99.90
9977;DHT22;5029;47.378;11.776;2022-09-27T22:03:46;6.70;99.90
9977;DHT22;5029;47.378;11.776;2022-09-27T22:08:52;6.70;99.90
9977;DHT22;5029;47.378;11.776;2022-09-27T22:13:56;6.90;99.90
9977;DHT22;5029;47.378;11.776;2022-09-27T22:19:00;6.80;99.90
9977;DHT22;5029;47.378;11.776;2022-09-27T22:24:07;6.80;99.90
9977;DHT22;5029;47.378;11.776;2022-09-27T22:29:13;6.70;99.90
9977;DHT22;5029;47.378;11.776;2022-09-27T22:34:17;6.40;99.90
9977;DHT22;5029;47.378;11.776;2022-09-27T22:39:31;6.60;99.90
9977;DHT22;5029;47.378;11.776;2022-09-27T22:44:35;7.00;99.90
9977;DHT22;5029;47.378;11.776;2022-09-27T22:49:40;7.10;99.90
9977;DHT22;5029;47.378;11.776;2022-09-27T22:54:45;6.60;99.90
9977;DHT22;5029;47.378;11.776;2022-09-27T22:59:48;6.50;99.90
9977;DHT22;5029;47.378;11.776;2022-09-27T23:04:51;6.80;99.90
9977;DHT22;5029;47.378;11.776;2022-09-27T23:09:57;6.90;99.90
9977;DHT22;5029;47.378;11.776;2022-09-27T23:15:01;6.70;99.90
9977;DHT22;5029;47.378;11.776;2022-09-27T23:20:05;6.30;99.90
9977;DHT22;5029;47.378;11.776;2022-09-27T23:25:12;6.30;99.90
9977;DHT22;5029;47.378;11.776;2022-09-27T23:30:17;6.30;99.90
9977;DHT22;5029;47.378;11.776;2022-09-27T23:35:21;6.00;99.90
9977;DHT22;5029;47.378;11.776;2022-09-27T23:40:26;5.80;99.90
9977;DHT22;5029;47.378;11.776;2022-09-27T23:45:30;5.80;99.90
9977;DHT22;5029;47.378;11.776;2022-09-27T23:50:34;6.10;99.90
9977;DHT22;5029;47.378;11.776;2022-09-27T23:55:39;5.70;99.90
